sensor_id;sensor_type;location;lat;lon;timestamp;pressure;altitude;pressure_sealevel;temperature;humidity
58698;BME280;44475;53.206;-6.106;2023-03-23T00:01:10;98676.09;;;22.77;48.58
58698;BME280;44475;53.206;-6.106;2023-03-23T00:03:39;98685.44;;;22.83;48.62
58698;BME280;44475;53.206;-6.106;2023-03-23T00:06:07;98684.41;;;22.84;48.35
58698;BME280;44475;53.206;-6.106;2023-03-23T00:08:35;98697.88;;;22.86;48.23
58698;BME280;44475;53.206;-6.106;2023-03-23T00:11:15;98692.28;;;22.79;48.17
58698;BME280;44475;53.206;-6.106;2023-03-23T00:13:43;98704.38;;;22.85;48.02
58698;BME280;44475;53.206;-6.106;2023-03-23T00:16:12;98694.53;;;22.75;48.42
58698;BME280;44475;53.206;-6.106;2023-03-23T00:21:34;98704.91;;;22.80;48.29
58698;BME280;44475;53.206;-6.106;2023-03-23T00:24:07;98705.00;;;22.72;48.87
58698;BME280;44475;53.206;-6.106;2023-03-23T00:26:34;98706.72;;;22.88;48.06
58698;BME280;44475;53.206;-6.106;2023-03-23T00:32:24;98695.72;;;22.57;48.90
58698;BME280;44475;53.206;-6.106;2023-03-23T00:34:58;98703.34;;;22.62;48.43
58698;BME280;44475;53.206;-6.106;2023-03-23T00:37:29;98695.66;;;22.66;48.67
58698;BME280;44475;53.206;-6.106;2023-03-23T00:39:56;98700.06;;;22.67;48.89
58698;BME280;44475;53.206;-6.106;2023-03-23T00:42:24;98693.13;;;22.79;48.54
58698;BME280;44475;53.206;-6.106;2023-03-23T00:44:50;98707.34;;;22.75;48.45
58698;BME280;44475;53.206;-6.106;2023-03-23T00:47:19;98719.66;;;22.70;48.51
58698;BME280;44475;53.206;-6.106;2023-03-23T00:49:46;98717.53;;;22.81;48.18
58698;BME280;44475;53.206;-6.106;2023-03-23T00:52:13;98709.38;;;22.73;48.29
58698;BME280;44475;53.206;-6.106;2023-03-23T00:54:40;98715.13;;;22.63;48.76
58698;BME280;44475;53.206;-6.106;2023-03-23T00:57:06;98709.53;;;22.79;48.51
58698;BME280;44475;53.206;-6.106;2023-03-23T00:59:32;98700.56;;;22.70;48.53
58698;BME280;44475;53.206;-6.106;2023-03-23T01:01:59;98722.75;;;22.67;48.69
58698;BME280;44475;53.206;-6.106;2023-03-23T01:04:25;98724.81;;;22.65;48.39
58698;BME280;44475;53.206;-6.106;2023-03-23T01:06:54;98714.75;;;22.66;48.57
58698;BME280;44475;53.206;-6.106;2023-03-23T01:09:22;98722.66;;;22.60;48.88
58698;BME280;44475;53.206;-6.106;2023-03-23T01:11:50;98718.59;;;22.56;48.53
58698;BME280;44475;53.206;-6.106;2023-03-23T01:14:18;98732.00;;;22.43;48.65
58698;BME280;44475;53.206;-6.106;2023-03-23T01:16:45;98725.94;;;22.56;48.63
58698;BME280;44475;53.206;-6.106;2023-03-23T01:19:24;98728.03;;;22.69;48.20
58698;BME280;44475;53.206;-6.106;2023-03-23T01:21:51;98723.03;;;22.57;48.43
58698;BME280;44475;53.206;-6.106;2023-03-23T01:24:17;98726.41;;;22.59;48.54
58698;BME280;44475;53.206;-6.106;2023-03-23T01:26:43;98725.78;;;22.73;48.22
58698;BME280;44475;53.206;-6.106;2023-03-23T01:29:10;98725.41;;;22.76;48.13
58698;BME280;44475;53.206;-6.106;2023-03-23T01:31:37;98723.44;;;22.69;48.58
58698;BME280;44475;53.206;-6.106;2023-03-23T01:34:05;98725.41;;;22.76;48.29
58698;BME280;44475;53.206;-6.106;2023-03-23T01:36:32;98713.19;;;22.72;48.21
58698;BME280;44475;53.206;-6.106;2023-03-23T01:39:03;98723.03;;;22.73;48.41
58698;BME280;44475;53.206;-6.106;2023-03-23T01:41:32;98728.63;;;22.79;48.01
58698;BME280;44475;53.206;-6.106;2023-03-23T01:44:03;98733.13;;;22.72;48.16
58698;BME280;44475;53.206;-6.106;2023-03-23T01:46:53;98730.41;;;22.72;48.34
58698;BME280;44475;53.206;-6.106;2023-03-23T01:49:27;98733.78;;;22.74;48.53
58698;BME280;44475;53.206;-6.106;2023-03-23T01:52:05;98727.59;;;22.80;48.43
58698;BME280;44475;53.206;-6.106;2023-03-23T01:54:34;98731.22;;;22.73;48.59
58698;BME280;44475;53.206;-6.106;2023-03-23T01:57:06;98724.28;;;22.70;48.37
58698;BME280;44475;53.206;-6.106;2023-03-23T01:59:37;98721.25;;;22.65;48.71
58698;BME280;44475;53.206;-6.106;2023-03-23T02:02:33;98719.59;;;22.79;48.63
58698;BME280;44475;53.206;-6.106;2023-03-23T02:05:07;98713.97;;;22.57;48.87
58698;BME280;44475;53.206;-6.106;2023-03-23T02:07:35;98711.00;;;22.67;48.88
58698;BME280;44475;53.206;-6.106;2023-03-23T02:10:06;98701.41;;;22.71;48.82
58698;BME280;44475;53.206;-6.106;2023-03-23T02:12:34;98701.78;;;22.68;48.71
58698;BME280;44475;53.206;-6.106;2023-03-23T02:15:01;98697.34;;;22.67;48.57
58698;BME280;44475;53.206;-6.106;2023-03-23T02:23:52;98696.22;;;22.61;48.88
58698;BME280;44475;53.206;-6.106;2023-03-23T02:35:07;98683.88;;;22.65;48.61
58698;BME280;44475;53.206;-6.106;2023-03-23T02:37:59;98687.63;;;22.64;48.64
58698;BME280;44475;53.206;-6.106;2023-03-23T02:40:46;98677.22;;;22.68;48.69
58698;BME280;44475;53.206;-6.106;2023-03-23T02:43:20;98678.41;;;22.65;48.59
58698;BME280;44475;53.206;-6.106;2023-03-23T02:45:51;98674.16;;;22.63;48.81
58698;BME280;44475;53.206;-6.106;2023-03-23T02:48:21;98667.31;;;22.67;48.63
58698;BME280;44475;53.206;-6.106;2023-03-23T02:50:53;98666.38;;;22.59;48.67
58698;BME280;44475;53.206;-6.106;2023-03-23T02:53:22;98672.50;;;22.62;48.75
58698;BME280;44475;53.206;-6.106;2023-03-23T02:55:53;98678.59;;;22.64;48.91
58698;BME280;44475;53.206;-6.106;2023-03-23T02:58:28;98677.03;;;22.69;48.39
58698;BME280;44475;53.206;-6.106;2023-03-23T03:00:55;98678.34;;;22.74;48.49
58698;BME280;44475;53.206;-6.106;2023-03-23T03:03:26;98669.03;;;22.68;48.69
58698;BME280;44475;53.206;-6.106;2023-03-23T03:11:17;98661.94;;;22.74;48.53
58698;BME280;44475;53.206;-6.106;2023-03-23T03:14:08;98659.69;;;22.62;48.27
58698;BME280;44475;53.206;-6.106;2023-03-23T03:16:49;98659.88;;;22.60;48.82
58698;BME280;44475;53.206;-6.106;2023-03-23T03:19:29;98657.09;;;22.45;48.97
58698;BME280;44475;53.206;-6.106;2023-03-23T03:21:58;98656.31;;;22.60;48.54
58698;BME280;44475;53.206;-6.106;2023-03-23T03:24:37;98659.69;;;22.62;48.65
58698;BME280;44475;53.206;-6.106;2023-03-23T03:27:05;98658.06;;;22.53;48.92
58698;BME280;44475;53.206;-6.106;2023-03-23T03:29:46;98659.22;;;22.58;48.51
58698;BME280;44475;53.206;-6.106;2023-03-23T03:32:20;98638.59;;;22.56;48.60
58698;BME280;44475;53.206;-6.106;2023-03-23T03:34:49;98638.59;;;22.56;48.89
58698;BME280;44475;53.206;-6.106;2023-03-23T03:37:20;98642.34;;;22.55;48.53
58698;BME280;44475;53.206;-6.106;2023-03-23T03:39:47;98637.19;;;22.60;48.77
58698;BME280;44475;53.206;-6.106;2023-03-23T03:42:14;98622.59;;;22.53;48.70
58698;BME280;44475;53.206;-6.106;2023-03-23T03:44:40;98622.50;;;22.46;49.03
58698;BME280;44475;53.206;-6.106;2023-03-23T03:47:07;98616.53;;;22.42;48.93
58698;BME280;44475;53.206;-6.106;2023-03-23T03:49:36;98617.88;;;22.46;48.84
58698;BME280;44475;53.206;-6.106;2023-03-23T03:52:03;98608.38;;;22.57;48.77
58698;BME280;44475;53.206;-6.106;2023-03-23T03:54:40;98609.34;;;22.49;48.79
58698;BME280;44475;53.206;-6.106;2023-03-23T03:57:08;98600.75;;;22.53;48.73
58698;BME280;44475;53.206;-6.106;2023-03-23T04:00:16;98595.75;;;22.41;49.00
58698;BME280;44475;53.206;-6.106;2023-03-23T04:02:47;98587.50;;;22.49;48.69
58698;BME280;44475;53.206;-6.106;2023-03-23T04:05:23;98573.94;;;22.56;48.79
58698;BME280;44475;53.206;-6.106;2023-03-23T04:07:50;98569.25;;;22.50;48.78
58698;BME280;44475;53.206;-6.106;2023-03-23T04:10:20;98570.72;;;22.53;48.91
58698;BME280;44475;53.206;-6.106;2023-03-23T04:12:49;98569.97;;;22.44;48.84
58698;BME280;44475;53.206;-6.106;2023-03-23T04:15:34;98584.28;;;22.46;48.65
58698;BME280;44475;53.206;-6.106;2023-03-23T04:18:01;98568.47;;;22.41;48.93
58698;BME280;44475;53.206;-6.106;2023-03-23T04:20:29;98566.69;;;22.48;48.90
58698;BME280;44475;53.206;-6.106;2023-03-23T04:22:56;98565.00;;;22.63;48.29
58698;BME280;44475;53.206;-6.106;2023-03-23T04:25:24;98569.88;;;22.37;49.06
58698;BME280;44475;53.206;-6.106;2023-03-23T04:27:53;98559.81;;;22.53;48.71
58698;BME280;44475;53.206;-6.106;2023-03-23T04:30:24;98558.06;;;22.60;48.31
58698;BME280;44475;53.206;-6.106;2023-03-23T04:33:10;98561.34;;;22.55;48.41
58698;BME280;44475;53.206;-6.106;2023-03-23T04:35:43;98558.03;;;22.45;48.80
58698;BME280;44475;53.206;-6.106;2023-03-23T04:38:43;98563.78;;;22.50;48.49
58698;BME280;44475;53.206;-6.106;2023-03-23T04:41:21;98555.50;;;22.58;48.45
58698;BME280;44475;53.206;-6.106;2023-03-23T04:44:17;98553.91;;;22.64;48.48
58698;BME280;44475;53.206;-6.106;2023-03-23T04:46:54;98558.34;;;22.50;48.51
58698;BME280;44475;53.206;-6.106;2023-03-23T04:49:22;98548.91;;;22.53;48.62
58698;BME280;44475;53.206;-6.106;2023-03-23T04:51:53;98558.69;;;22.47;48.52
58698;BME280;44475;53.206;-6.106;2023-03-23T04:54:37;98547.88;;;22.38;48.72
58698;BME280;44475;53.206;-6.106;2023-03-23T04:57:06;98559.25;;;22.42;48.63
58698;BME280;44475;53.206;-6.106;2023-03-23T04:59:36;98560.13;;;22.58;48.54
58698;BME280;44475;53.206;-6.106;2023-03-23T05:02:14;98564.69;;;22.42;48.75
58698;BME280;44475;53.206;-6.106;2023-03-23T05:04:44;98556.44;;;22.50;48.43
58698;BME280;44475;53.206;-6.106;2023-03-23T05:07:17;98546.84;;;22.55;48.25
58698;BME280;44475;53.206;-6.106;2023-03-23T05:09:50;98544.13;;;22.39;48.59
58698;BME280;44475;53.206;-6.106;2023-03-23T05:12:20;98536.78;;;22.55;48.33
58698;BME280;44475;53.206;-6.106;2023-03-23T05:15:08;98541.56;;;22.53;48.08
58698;BME280;44475;53.206;-6.106;2023-03-23T05:17:38;98539.22;;;22.50;48.18
58698;BME280;44475;53.206;-6.106;2023-03-23T05:20:15;98545.59;;;22.42;48.41
58698;BME280;44475;53.206;-6.106;2023-03-23T05:22:47;98544.59;;;22.58;48.29
58698;BME280;44475;53.206;-6.106;2023-03-23T05:25:30;98547.03;;;22.53;48.10
58698;BME280;44475;53.206;-6.106;2023-03-23T05:28:00;98551.56;;;22.61;48.29
58698;BME280;44475;53.206;-6.106;2023-03-23T05:30:54;98548.25;;;22.50;48.18
58698;BME280;44475;53.206;-6.106;2023-03-23T05:33:22;98542.03;;;22.57;48.13
58698;BME280;44475;53.206;-6.106;2023-03-23T05:36:09;98528.22;;;22.58;48.30
58698;BME280;44475;53.206;-6.106;2023-03-23T05:39:06;98531.78;;;22.59;48.30
58698;BME280;44475;53.206;-6.106;2023-03-23T05:41:51;98532.91;;;22.65;48.12
58698;BME280;44475;53.206;-6.106;2023-03-23T05:44:23;98541.56;;;22.53;48.15
58698;BME280;44475;53.206;-6.106;2023-03-23T05:46:52;98545.59;;;22.42;48.27
58698;BME280;44475;53.206;-6.106;2023-03-23T05:49:22;98534.13;;;22.47;48.42
58698;BME280;44475;53.206;-6.106;2023-03-23T05:51:51;98538.38;;;22.49;48.30
58698;BME280;44475;53.206;-6.106;2023-03-23T05:54:18;98528.22;;;22.58;48.01
58698;BME280;44475;53.206;-6.106;2023-03-23T05:56:47;98538.09;;;22.44;48.46
58698;BME280;44475;53.206;-6.106;2023-03-23T05:59:40;98529.91;;;22.44;48.14
58698;BME280;44475;53.206;-6.106;2023-03-23T06:02:12;98535.84;;;22.48;48.11
58698;BME280;44475;53.206;-6.106;2023-03-23T06:04:41;98531.13;;;22.57;47.93
58698;BME280;44475;53.206;-6.106;2023-03-23T06:07:21;98528.22;;;22.58;47.68
58698;BME280;44475;53.206;-6.106;2023-03-23T06:09:55;98526.69;;;22.56;47.99
58698;BME280;44475;53.206;-6.106;2023-03-23T06:12:24;98535.06;;;22.54;47.94
58698;BME280;44475;53.206;-6.106;2023-03-23T06:14:54;98545.13;;;22.54;47.77
58698;BME280;44475;53.206;-6.106;2023-03-23T06:17:32;98529.22;;;22.42;48.12
58698;BME280;44475;53.206;-6.106;2023-03-23T06:19:58;98547.03;;;22.53;48.03
58698;BME280;44475;53.206;-6.106;2023-03-23T06:22:26;98538.25;;;22.43;48.32
58698;BME280;44475;53.206;-6.106;2023-03-23T06:24:52;98537.34;;;22.50;48.11
58698;BME280;44475;53.206;-6.106;2023-03-23T06:27:26;98530.47;;;22.55;48.14
58698;BME280;44475;53.206;-6.106;2023-03-23T06:29:55;98548.31;;;22.42;48.35
58698;BME280;44475;53.206;-6.106;2023-03-23T06:32:24;98554.56;;;22.51;47.84
58698;BME280;44475;53.206;-6.106;2023-03-23T06:34:51;98549.47;;;22.48;47.78
58698;BME280;44475;53.206;-6.106;2023-03-23T06:37:38;98555.66;;;22.26;48.21
58698;BME280;44475;53.206;-6.106;2023-03-23T06:40:14;98557.81;;;22.31;48.25
58698;BME280;44475;53.206;-6.106;2023-03-23T06:42:44;98499.69;;;22.15;48.18
58698;BME280;44475;53.206;-6.106;2023-03-23T06:45:41;98561.34;;;22.40;47.96
58698;BME280;44475;53.206;-6.106;2023-03-23T06:48:31;98570.47;;;22.47;48.04
58698;BME280;44475;53.206;-6.106;2023-03-23T06:50:59;98575.44;;;22.28;48.48
58698;BME280;44475;53.206;-6.106;2023-03-23T06:53:27;98566.88;;;22.47;47.94
58698;BME280;44475;53.206;-6.106;2023-03-23T06:55:56;98564.16;;;22.47;47.81
58698;BME280;44475;53.206;-6.106;2023-03-23T06:58:23;98572.88;;;22.42;48.21
58698;BME280;44475;53.206;-6.106;2023-03-23T07:00:57;98568.09;;;22.29;48.22
58698;BME280;44475;53.206;-6.106;2023-03-23T07:03:29;98564.13;;;22.16;48.42
58698;BME280;44475;53.206;-6.106;2023-03-23T07:05:58;98556.78;;;22.32;48.09
58698;BME280;44475;53.206;-6.106;2023-03-23T07:08:28;98570.47;;;22.47;47.72
58698;BME280;44475;53.206;-6.106;2023-03-23T07:10:55;98560.84;;;22.36;48.04
58698;BME280;44475;53.206;-6.106;2023-03-23T07:13:27;98565.19;;;22.46;47.72
58698;BME280;44475;53.206;-6.106;2023-03-23T07:15:58;98571.66;;;22.29;48.09
58698;BME280;44475;53.206;-6.106;2023-03-23T07:18:24;98568.94;;;22.29;48.35
58698;BME280;44475;53.206;-6.106;2023-03-23T07:20:53;98586.03;;;22.23;48.34
58698;BME280;44475;53.206;-6.106;2023-03-23T07:23:23;98571.94;;;22.35;48.01
58698;BME280;44475;53.206;-6.106;2023-03-23T07:25:57;98584.66;;;22.43;47.75
58698;BME280;44475;53.206;-6.106;2023-03-23T07:28:30;98581.81;;;22.36;47.92
58698;BME280;44475;53.206;-6.106;2023-03-23T07:31:03;98591.13;;;22.42;47.74
58698;BME280;44475;53.206;-6.106;2023-03-23T07:33:30;98590.69;;;22.53;47.52
58698;BME280;44475;53.206;-6.106;2023-03-23T07:36:02;98598.19;;;22.36;47.77
58698;BME280;44475;53.206;-6.106;2023-03-23T07:38:29;98598.47;;;22.41;47.97
58698;BME280;44475;53.206;-6.106;2023-03-23T07:40:58;98608.34;;;22.27;48.05
58698;BME280;44475;53.206;-6.106;2023-03-23T07:43:25;98600.13;;;22.50;47.91
58698;BME280;44475;53.206;-6.106;2023-03-23T07:45:52;98602.00;;;22.50;47.60
58698;BME280;44475;53.206;-6.106;2023-03-23T07:48:23;98594.88;;;22.25;48.42
58698;BME280;44475;53.206;-6.106;2023-03-23T07:50:51;98596.13;;;22.38;47.95
58698;BME280;44475;53.206;-6.106;2023-03-23T07:53:17;98599.03;;;22.36;48.03
58698;BME280;44475;53.206;-6.106;2023-03-23T07:55:53;98606.75;;;22.33;47.83
58698;BME280;44475;53.206;-6.106;2023-03-23T07:58:37;98604.09;;;22.24;48.21
58698;BME280;44475;53.206;-6.106;2023-03-23T08:01:07;98604.53;;;22.13;48.31
58698;BME280;44475;53.206;-6.106;2023-03-23T08:03:35;98616.81;;;22.32;48.31
58698;BME280;44475;53.206;-6.106;2023-03-23T08:06:27;98621.41;;;22.32;47.89
58698;BME280;44475;53.206;-6.106;2023-03-23T08:09:15;98615.84;;;22.25;47.97
58698;BME280;44475;53.206;-6.106;2023-03-23T08:12:11;98606.81;;;22.24;48.10
58698;BME280;44475;53.206;-6.106;2023-03-23T08:14:56;98624.81;;;22.34;47.95
58698;BME280;44475;53.206;-6.106;2023-03-23T08:17:40;98617.06;;;22.22;48.13
58698;BME280;44475;53.206;-6.106;2023-03-23T08:20:33;98615.50;;;22.28;47.97
58698;BME280;44475;53.206;-6.106;2023-03-23T08:23:34;98615.16;;;22.46;47.42
58698;BME280;44475;53.206;-6.106;2023-03-23T08:26:28;98627.19;;;22.37;47.70
58698;BME280;44475;53.206;-6.106;2023-03-23T08:29:14;98623.16;;;22.48;47.05
58698;BME280;44475;53.206;-6.106;2023-03-23T08:31:59;98620.88;;;22.52;47.44
58698;BME280;44475;53.206;-6.106;2023-03-23T08:34:32;98619.78;;;22.22;47.61
58698;BME280;44475;53.206;-6.106;2023-03-23T08:37:01;98613.34;;;22.38;47.28
58698;BME280;44475;53.206;-6.106;2023-03-23T08:39:53;98611.75;;;22.44;47.25
58698;BME280;44475;53.206;-6.106;2023-03-23T08:42:42;98612.19;;;22.33;47.36
58698;BME280;44475;53.206;-6.106;2023-03-23T08:45:29;98614.66;;;22.27;47.82
58698;BME280;44475;53.206;-6.106;2023-03-23T08:48:19;98615.22;;;22.38;47.50
58698;BME280;44475;53.206;-6.106;2023-03-23T08:51:08;98625.88;;;22.48;47.15
58698;BME280;44475;53.206;-6.106;2023-03-23T08:53:48;98624.09;;;22.40;47.77
58698;BME280;44475;53.206;-6.106;2023-03-23T08:56:33;98631.44;;;22.39;47.43
58698;BME280;44475;53.206;-6.106;2023-03-23T08:59:37;98633.19;;;22.32;47.62
58698;BME280;44475;53.206;-6.106;2023-03-23T09:02:15;98633.31;;;22.54;47.48
58698;BME280;44475;53.206;-6.106;2023-03-23T09:04:49;98629.28;;;22.50;47.18
58698;BME280;44475;53.206;-6.106;2023-03-23T09:07:41;98630.41;;;22.40;47.39
58698;BME280;44475;53.206;-6.106;2023-03-23T09:10:09;98626.34;;;22.13;48.28
58698;BME280;44475;53.206;-6.106;2023-03-23T09:12:36;98635.50;;;22.20;47.89
58698;BME280;44475;53.206;-6.106;2023-03-23T09:15:04;98612.59;;;22.29;47.75
58698;BME280;44475;53.206;-6.106;2023-03-23T09:17:31;98623.38;;;22.23;48.15
58698;BME280;44475;53.206;-6.106;2023-03-23T09:19:58;98619.78;;;22.22;48.15
58698;BME280;44475;53.206;-6.106;2023-03-23T09:22:25;98629.22;;;22.35;47.87
58698;BME280;44475;53.206;-6.106;2023-03-23T09:24:51;98630.84;;;22.44;47.58
58698;BME280;44475;53.206;-6.106;2023-03-23T09:27:18;98626.25;;;22.45;47.76
58698;BME280;44475;53.206;-6.106;2023-03-23T09:29:45;98629.72;;;22.38;47.95
58698;BME280;44475;53.206;-6.106;2023-03-23T09:32:12;98636.22;;;22.37;47.92
58698;BME280;44475;53.206;-6.106;2023-03-23T09:34:39;98628.69;;;22.39;47.63
58698;BME280;44475;53.206;-6.106;2023-03-23T09:37:07;98628.88;;;22.38;47.70
58698;BME280;44475;53.206;-6.106;2023-03-23T09:39:34;98624.38;;;22.45;47.87
58698;BME280;44475;53.206;-6.106;2023-03-23T09:55:18;98638.94;;;22.37;47.91
58698;BME280;44475;53.206;-6.106;2023-03-23T10:01:17;98631.97;;;22.35;47.94
58698;BME280;44475;53.206;-6.106;2023-03-23T10:03:46;98625.22;;;22.46;47.73
58698;BME280;44475;53.206;-6.106;2023-03-23T10:06:15;98631.69;;;22.45;47.91
58698;BME280;44475;53.206;-6.106;2023-03-23T10:08:58;98643.06;;;22.33;48.28
58698;BME280;44475;53.206;-6.106;2023-03-23T10:11:49;98638.38;;;22.42;47.72
58698;BME280;44475;53.206;-6.106;2023-03-23T10:14:26;98653.00;;;22.49;48.01
58698;BME280;44475;53.206;-6.106;2023-03-23T10:17:09;98641.84;;;22.36;47.94
58698;BME280;44475;53.206;-6.106;2023-03-23T10:22:31;98642.22;;;22.33;48.20
58698;BME280;44475;53.206;-6.106;2023-03-23T10:25:16;98642.69;;;22.36;48.00
58698;BME280;44475;53.206;-6.106;2023-03-23T10:30:33;98664.59;;;22.28;48.37
58698;BME280;44475;53.206;-6.106;2023-03-23T10:33:02;98651.56;;;22.15;48.81
58698;BME280;44475;53.206;-6.106;2023-03-23T10:35:48;98636.34;;;22.20;49.00
58698;BME280;44475;53.206;-6.106;2023-03-23T10:38:47;98642.63;;;22.21;49.05
58698;BME280;44475;53.206;-6.106;2023-03-23T10:41:17;98653.03;;;22.26;49.01
58698;BME280;44475;53.206;-6.106;2023-03-23T10:43:45;98666.16;;;22.22;49.43
58698;BME280;44475;53.206;-6.106;2023-03-23T10:48:52;98644.25;;;22.30;49.26
58698;BME280;44475;53.206;-6.106;2023-03-23T10:51:22;98647.47;;;22.19;49.53
58698;BME280;44475;53.206;-6.106;2023-03-23T10:53:55;98640.75;;;22.22;49.75
58698;BME280;44475;53.206;-6.106;2023-03-23T10:56:26;98638.28;;;22.35;49.68
58698;BME280;44475;53.206;-6.106;2023-03-23T10:58:54;98631.28;;;22.33;49.71
58698;BME280;44475;53.206;-6.106;2023-03-23T11:01:30;98635.81;;;22.25;49.60
58698;BME280;44475;53.206;-6.106;2023-03-23T11:03:58;98641.25;;;22.25;50.03
58698;BME280;44475;53.206;-6.106;2023-03-23T11:06:33;98632.41;;;22.23;49.67
58698;BME280;44475;53.206;-6.106;2023-03-23T11:09:17;98634.59;;;22.28;50.09
58698;BME280;44475;53.206;-6.106;2023-03-23T11:11:50;98639.13;;;22.36;50.15
58698;BME280;44475;53.206;-6.106;2023-03-23T11:14:25;98643.38;;;22.38;49.98
58698;BME280;44475;53.206;-6.106;2023-03-23T11:16:58;98650.41;;;22.33;50.18
58698;BME280;44475;53.206;-6.106;2023-03-23T11:19:33;98642.72;;;22.52;49.78
58698;BME280;44475;53.206;-6.106;2023-03-23T11:22:09;98640.66;;;22.54;49.69
58698;BME280;44475;53.206;-6.106;2023-03-23T11:24:49;98637.31;;;22.28;50.14
58698;BME280;44475;53.206;-6.106;2023-03-23T11:27:19;98639.22;;;22.43;50.15
58698;BME280;44475;53.206;-6.106;2023-03-23T11:29:56;98645.25;;;22.38;49.83
58698;BME280;44475;53.206;-6.106;2023-03-23T11:32:28;98665.28;;;22.45;49.62
58698;BME280;44475;53.206;-6.106;2023-03-23T11:35:23;98642.78;;;22.43;49.98
58698;BME280;44475;53.206;-6.106;2023-03-23T11:37:55;98637.47;;;22.65;49.29
58698;BME280;44475;53.206;-6.106;2023-03-23T11:40:26;98635.78;;;22.64;49.17
58698;BME280;44475;53.206;-6.106;2023-03-23T11:45:40;98621.59;;;22.84;48.61
58698;BME280;44475;53.206;-6.106;2023-03-23T11:48:40;98619.09;;;22.83;48.60
58698;BME280;44475;53.206;-6.106;2023-03-23T11:51:22;98628.41;;;22.88;48.58
58698;BME280;44475;53.206;-6.106;2023-03-23T11:53:53;98635.38;;;22.91;47.79
58698;BME280;44475;53.206;-6.106;2023-03-23T11:56:33;98628.88;;;22.92;47.30
58698;BME280;44475;53.206;-6.106;2023-03-23T11:59:49;98620.28;;;22.95;46.59
58698;BME280;44475;53.206;-6.106;2023-03-23T12:02:00;98630.81;;;22.83;46.65
58698;BME280;44475;53.206;-6.106;2023-03-23T12:07:59;98638.06;;;22.60;46.62
58698;BME280;44475;53.206;-6.106;2023-03-23T12:13:36;98637.25;;;22.52;46.16
58698;BME280;44475;53.206;-6.106;2023-03-23T12:19:13;98624.28;;;22.54;45.91
58698;BME280;44475;53.206;-6.106;2023-03-23T12:22:04;98629.16;;;22.43;45.89
58698;BME280;44475;53.206;-6.106;2023-03-23T12:30:37;98597.16;;;22.52;45.29
58698;BME280;44475;53.206;-6.106;2023-03-23T12:33:45;98605.75;;;22.64;45.04
58698;BME280;44475;53.206;-6.106;2023-03-23T12:50:40;98576.78;;;23.09;43.43
58698;BME280;44475;53.206;-6.106;2023-03-23T12:53:25;98552.59;;;22.91;44.07
58698;BME280;44475;53.206;-6.106;2023-03-23T12:59:29;98565.06;;;23.15;43.05
58698;BME280;44475;53.206;-6.106;2023-03-23T13:04:50;98544.78;;;22.87;44.11
58698;BME280;44475;53.206;-6.106;2023-03-23T13:07:22;98545.09;;;22.93;43.96
58698;BME280;44475;53.206;-6.106;2023-03-23T13:12:41;98561.84;;;22.89;44.01
58698;BME280;44475;53.206;-6.106;2023-03-23T13:21:12;98543.81;;;22.65;44.20
58698;BME280;44475;53.206;-6.106;2023-03-23T13:23:53;98546.13;;;22.92;43.24
58698;BME280;44475;53.206;-6.106;2023-03-23T13:26:22;98541.41;;;22.85;43.26
58698;BME280;44475;53.206;-6.106;2023-03-23T13:29:01;98546.97;;;22.92;43.10
58698;BME280;44475;53.206;-6.106;2023-03-23T13:31:30;98544.97;;;22.86;42.62
58698;BME280;44475;53.206;-6.106;2023-03-23T13:34:26;98545.09;;;22.93;42.69
58698;BME280;44475;53.206;-6.106;2023-03-23T13:37:04;98556.84;;;22.93;42.32
58698;BME280;44475;53.206;-6.106;2023-03-23T13:39:34;98547.31;;;23.04;42.08
58698;BME280;44475;53.206;-6.106;2023-03-23T13:52:55;98528.78;;;22.84;43.42
58698;BME280;44475;53.206;-6.106;2023-03-23T14:00:37;98501.72;;;23.64;42.18
58698;BME280;44475;53.206;-6.106;2023-03-23T14:13:41;98471.06;;;23.69;42.70
58698;BME280;44475;53.206;-6.106;2023-03-23T14:19:13;98487.13;;;23.79;42.42
58698;BME280;44475;53.206;-6.106;2023-03-23T14:21:48;98473.09;;;23.89;42.17
58698;BME280;44475;53.206;-6.106;2023-03-23T14:24:24;98479.56;;;23.81;42.49
58698;BME280;44475;53.206;-6.106;2023-03-23T14:27:01;98478.69;;;23.74;42.62
58698;BME280;44475;53.206;-6.106;2023-03-23T14:29:29;98469.22;;;23.54;43.28
58698;BME280;44475;53.206;-6.106;2023-03-23T14:31:57;98459.81;;;23.35;43.69
58698;BME280;44475;53.206;-6.106;2023-03-23T14:34:30;98465.19;;;23.28;44.11
58698;BME280;44475;53.206;-6.106;2023-03-23T14:36:58;98464.00;;;23.15;44.59
58698;BME280;44475;53.206;-6.106;2023-03-23T14:39:35;98460.50;;;23.22;44.97
58698;BME280;44475;53.206;-6.106;2023-03-23T14:42:06;98460.75;;;23.27;44.58
58698;BME280;44475;53.206;-6.106;2023-03-23T14:44:42;98470.84;;;23.04;45.19
58698;BME280;44475;53.206;-6.106;2023-03-23T14:47:28;98450.97;;;22.95;45.42
58698;BME280;44475;53.206;-6.106;2023-03-23T14:49:58;98450.47;;;23.07;45.40
58698;BME280;44475;53.206;-6.106;2023-03-23T14:52:29;98452.84;;;23.10;45.26
58698;BME280;44475;53.206;-6.106;2023-03-23T14:55:11;98443.66;;;23.18;45.23
58698;BME280;44475;53.206;-6.106;2023-03-23T14:57:41;98434.69;;;23.24;44.86
58698;BME280;44475;53.206;-6.106;2023-03-23T15:00:30;98431.31;;;23.22;44.88
58698;BME280;44475;53.206;-6.106;2023-03-23T15:03:00;98421.81;;;23.18;44.97
58698;BME280;44475;53.206;-6.106;2023-03-23T15:05:32;98422.19;;;23.37;44.92
58698;BME280;44475;53.206;-6.106;2023-03-23T15:08:34;98421.16;;;23.16;45.18
58698;BME280;44475;53.206;-6.106;2023-03-23T15:13:49;98416.22;;;23.04;45.49
58698;BME280;44475;53.206;-6.106;2023-03-23T15:16:25;98411.00;;;23.09;45.63
58698;BME280;44475;53.206;-6.106;2023-03-23T15:19:05;98427.69;;;23.15;45.44
58698;BME280;44475;53.206;-6.106;2023-03-23T15:21:46;98422.28;;;23.22;45.52
58698;BME280;44475;53.206;-6.106;2023-03-23T15:24:40;98420.38;;;23.22;45.35
58698;BME280;44475;53.206;-6.106;2023-03-23T15:29:47;98419.25;;;23.16;45.67
58698;BME280;44475;53.206;-6.106;2023-03-23T15:32:13;98416.22;;;23.26;45.37
58698;BME280;44475;53.206;-6.106;2023-03-23T15:34:45;98411.81;;;23.25;45.94
58698;BME280;44475;53.206;-6.106;2023-03-23T15:37:35;98396.66;;;23.23;45.90
58698;BME280;44475;53.206;-6.106;2023-03-23T15:40:13;98402.16;;;23.29;45.79
58698;BME280;44475;53.206;-6.106;2023-03-23T15:42:40;98399.56;;;23.43;45.72